LFRG/DOL METAR and TAF weather

Enter ICAO airport designator
Station Type Date Time Source
LFRG METAR 2022/12/08 11:30 UTC NOAA

LFRG 081130Z AUTO VRB01KT 7000 SCT003 SCT030 OVC037 04/03 Q1010 TEMPO BKN012


Station Type Date Time Source
LFRG Decoded METAR 2022/12/08 11:30 UTC NOAA

Station name not available
Dec 08, 2022 - 06:30 AM EST / 2022.12.08 1130 UTC
Wind: Variable at 1 MPH (1 KT):0
Visibility: 4 mile(s):0
Sky conditions: overcast
Temperature: 39 F (4 C)
Dew Point: 37 F (3 C)
Relative Humidity: 93%
Pressure (altimeter): 29.83 in. Hg (1010 hPa)
ob: LFRG 081130Z AUTO VRB01KT 7000 SCT003 SCT030 OVC037 04/03 Q1010 TEMPO BKN012
cycle: 11

Station Type Date Time Source
LFRG TAF 2014/12/22 18:42 UTC NOAA

TAF
AMD TAF
AMD LFRG 221837Z 2218/2221 25015KT 9999 OVC015
TEMPO 2218/2221 BKN007 PROB30
TEMPO 2218/2221 25015G25KT 4000 DZ BKN003

Example: see airport list